sensor_id;sensor_type;location;lat;lon;timestamp;pressure;altitude;pressure_sealevel;temperature;humidity
40596;BME280;26304;48.794;9.820;2023-01-16T00:03:41;95186.28;;;14.64;52.35
40596;BME280;26304;48.794;9.820;2023-01-16T00:09:23;95175.44;;;14.62;51.78
40596;BME280;26304;48.794;9.820;2023-01-16T00:15:08;95163.09;;;14.59;51.81
40596;BME280;26304;48.794;9.820;2023-01-16T00:20:51;95159.72;;;14.58;52.20
40596;BME280;26304;48.794;9.820;2023-01-16T00:26:34;95148.13;;;14.56;52.32
40596;BME280;26304;48.794;9.820;2023-01-16T00:32:17;95139.56;;;14.55;51.89
40596;BME280;26304;48.794;9.820;2023-01-16T00:38:00;95137.31;;;14.53;52.52
40596;BME280;26304;48.794;9.820;2023-01-16T00:43:42;95127.97;;;14.52;51.88
40596;BME280;26304;48.794;9.820;2023-01-16T00:49:26;95117.50;;;14.49;52.68
40596;BME280;26304;48.794;9.820;2023-01-16T00:55:08;95104.41;;;14.45;52.29
40596;BME280;26304;48.794;9.820;2023-01-16T01:00:51;95100.69;;;14.46;52.23
40596;BME280;26304;48.794;9.820;2023-01-16T01:06:35;95084.63;;;14.41;52.09
40596;BME280;26304;48.794;9.820;2023-01-16T01:12:17;95073.06;;;14.38;52.41
40596;BME280;26304;48.794;9.820;2023-01-16T01:18:00;95071.53;;;14.41;52.57
40596;BME280;26304;48.794;9.820;2023-01-16T01:23:43;95056.25;;;14.39;52.05
40596;BME280;26304;48.794;9.820;2023-01-16T01:29:27;95052.16;;;14.38;52.22
40596;BME280;26304;48.794;9.820;2023-01-16T01:35:10;95049.91;;;14.40;51.88
40596;BME280;26304;48.794;9.820;2023-01-16T01:40:53;95039.44;;;14.33;52.22
40596;BME280;26304;48.794;9.820;2023-01-16T01:46:40;95041.69;;;14.38;51.49
40596;BME280;26304;48.794;9.820;2023-01-16T01:52:26;95017.78;;;14.36;51.15
40596;BME280;26304;48.794;9.820;2023-01-16T01:58:11;94996.50;;;14.34;51.08
40596;BME280;26304;48.794;9.820;2023-01-16T02:04:02;94986.41;;;14.32;51.27
40596;BME280;26304;48.794;9.820;2023-01-16T02:09:46;94976.69;;;14.29;51.11
40596;BME280;26304;48.794;9.820;2023-01-16T02:15:30;94955.06;;;14.29;51.23
40596;BME280;26304;48.794;9.820;2023-01-16T02:21:25;94943.84;;;14.25;51.01
40596;BME280;26304;48.794;9.820;2023-01-16T02:27:23;94924.06;;;14.24;50.76
40596;BME280;26304;48.794;9.820;2023-01-16T02:33:15;94912.88;;;14.23;50.74
40596;BME280;26304;48.794;9.820;2023-01-16T02:39:06;94890.81;;;14.35;50.01
40596;BME280;26304;48.794;9.820;2023-01-16T02:44:56;94863.88;;;14.49;50.29
40596;BME280;26304;48.794;9.820;2023-01-16T02:50:50;94844.06;;;14.59;50.10
40596;BME280;26304;48.794;9.820;2023-01-16T02:56:39;94832.78;;;14.73;50.57
40596;BME280;26304;48.794;9.820;2023-01-16T03:02:23;94828.94;;;14.92;49.96
40596;BME280;26304;48.794;9.820;2023-01-16T03:08:19;94815.03;;;15.05;50.29
40596;BME280;26304;48.794;9.820;2023-01-16T03:14:16;94799.25;;;15.16;50.31
40596;BME280;26304;48.794;9.820;2023-01-16T03:20:11;94783.09;;;15.29;50.75
40596;BME280;26304;48.794;9.820;2023-01-16T03:26:00;94761.66;;;15.41;50.86
40596;BME280;26304;48.794;9.820;2023-01-16T03:31:49;94742.38;;;15.62;50.33
40596;BME280;26304;48.794;9.820;2023-01-16T03:37:34;94726.84;;;15.82;50.08
40596;BME280;26304;48.794;9.820;2023-01-16T03:43:27;94719.94;;;15.95;50.12
40596;BME280;26304;48.794;9.820;2023-01-16T03:49:13;94698.13;;;16.06;50.08
40596;BME280;26304;48.794;9.820;2023-01-16T03:55:04;94695.06;;;16.11;49.76
40596;BME280;26304;48.794;9.820;2023-01-16T04:00:57;94671.00;;;16.16;49.77
40596;BME280;26304;48.794;9.820;2023-01-16T04:06:45;94659.75;;;16.19;49.41
40596;BME280;26304;48.794;9.820;2023-01-16T04:12:33;94639.72;;;16.05;50.04
40596;BME280;26304;48.794;9.820;2023-01-16T04:18:19;94628.66;;;15.94;50.62
40596;BME280;26304;48.794;9.820;2023-01-16T04:24:03;94614.44;;;15.91;50.48
40596;BME280;26304;48.794;9.820;2023-01-16T04:29:45;94605.25;;;15.79;50.81
40596;BME280;26304;48.794;9.820;2023-01-16T04:35:30;94597.69;;;15.85;50.24
40596;BME280;26304;48.794;9.820;2023-01-16T04:41:12;94582.22;;;15.94;50.11
40596;BME280;26304;48.794;9.820;2023-01-16T04:47:15;94564.16;;;16.00;49.55
40596;BME280;26304;48.794;9.820;2023-01-16T04:52:59;94546.56;;;16.01;49.42
40596;BME280;26304;48.794;9.820;2023-01-16T04:58:41;94540.53;;;16.04;49.47
40596;BME280;26304;48.794;9.820;2023-01-16T05:04:23;94524.38;;;16.29;49.25
40596;BME280;26304;48.794;9.820;2023-01-16T05:10:09;94507.97;;;16.48;48.30
40596;BME280;26304;48.794;9.820;2023-01-16T05:15:51;94500.19;;;16.85;47.82
40596;BME280;26304;48.794;9.820;2023-01-16T05:21:33;94477.78;;;16.80;47.78
40596;BME280;26304;48.794;9.820;2023-01-16T05:27:17;94475.34;;;17.30;47.60
40596;BME280;26304;48.794;9.820;2023-01-16T05:32:59;94459.44;;;17.53;47.45
40596;BME280;26304;48.794;9.820;2023-01-16T05:38:43;94450.41;;;17.71;47.07
40596;BME280;26304;48.794;9.820;2023-01-16T05:44:27;94440.66;;;17.88;46.74
40596;BME280;26304;48.794;9.820;2023-01-16T05:50:09;94421.09;;;18.05;46.60
40596;BME280;26304;48.794;9.820;2023-01-16T05:55:52;94403.16;;;18.17;46.55
40596;BME280;26304;48.794;9.820;2023-01-16T06:01:36;94381.47;;;18.12;46.52
40596;BME280;26304;48.794;9.820;2023-01-16T06:07:18;94381.19;;;18.23;46.54
40596;BME280;26304;48.794;9.820;2023-01-16T06:13:01;94366.53;;;18.09;46.62
40596;BME280;26304;48.794;9.820;2023-01-16T06:18:45;94348.00;;;18.00;47.02
40596;BME280;26304;48.794;9.820;2023-01-16T06:24:27;94330.59;;;17.73;47.92
40596;BME280;26304;48.794;9.820;2023-01-16T06:30:10;94313.03;;;17.70;48.03
40596;BME280;26304;48.794;9.820;2023-01-16T06:35:54;94291.81;;;17.48;48.73
40596;BME280;26304;48.794;9.820;2023-01-16T06:41:37;94278.94;;;17.37;49.19
40596;BME280;26304;48.794;9.820;2023-01-16T06:47:19;94266.41;;;17.29;49.23
40596;BME280;26304;48.794;9.820;2023-01-16T06:53:03;94253.94;;;17.16;49.62
40596;BME280;26304;48.794;9.820;2023-01-16T06:58:46;94231.81;;;17.01;49.79
40596;BME280;26304;48.794;9.820;2023-01-16T07:04:28;94223.13;;;16.87;50.05
40596;BME280;26304;48.794;9.820;2023-01-16T07:10:12;94201.63;;;16.76;50.17
40596;BME280;26304;48.794;9.820;2023-01-16T07:15:55;94201.03;;;16.68;50.02
40596;BME280;26304;48.794;9.820;2023-01-16T07:21:55;94187.34;;;16.61;50.27
40596;BME280;26304;48.794;9.820;2023-01-16T07:27:57;94190.88;;;16.54;49.67
40596;BME280;26304;48.794;9.820;2023-01-16T07:33:39;94165.06;;;16.36;51.09
40596;BME280;26304;48.794;9.820;2023-01-16T07:39:22;94157.13;;;16.56;50.22
40596;BME280;26304;48.794;9.820;2023-01-16T07:45:07;94148.00;;;16.61;50.13
40596;BME280;26304;48.794;9.820;2023-01-16T07:50:50;94132.81;;;16.68;49.88
40596;BME280;26304;48.794;9.820;2023-01-16T07:56:33;94119.22;;;16.74;50.20
40596;BME280;26304;48.794;9.820;2023-01-16T08:02:17;94120.06;;;16.70;50.17
40596;BME280;26304;48.794;9.820;2023-01-16T08:07:59;94105.63;;;16.62;50.47
40596;BME280;26304;48.794;9.820;2023-01-16T08:13:41;94099.22;;;16.63;50.72
40596;BME280;26304;48.794;9.820;2023-01-16T08:19:25;94079.72;;;16.64;50.81
40596;BME280;26304;48.794;9.820;2023-01-16T08:25:08;94069.25;;;16.64;50.38
40596;BME280;26304;48.794;9.820;2023-01-16T08:30:50;94061.69;;;16.66;50.93
40596;BME280;26304;48.794;9.820;2023-01-16T08:36:34;94045.84;;;16.70;50.62
40596;BME280;26304;48.794;9.820;2023-01-16T08:42:16;94034.63;;;16.69;50.49
40596;BME280;26304;48.794;9.820;2023-01-16T08:48:21;94023.00;;;16.70;50.51
40596;BME280;26304;48.794;9.820;2023-01-16T08:54:24;94019.97;;;16.72;50.74
40596;BME280;26304;48.794;9.820;2023-01-16T09:00:08;94008.41;;;16.69;50.84
40596;BME280;26304;48.794;9.820;2023-01-16T09:05:51;94007.25;;;16.70;50.91
40596;BME280;26304;48.794;9.820;2023-01-16T09:11:35;94000.75;;;16.75;50.64
40596;BME280;26304;48.794;9.820;2023-01-16T09:17:35;93976.78;;;16.60;51.08
40596;BME280;26304;48.794;9.820;2023-01-16T09:23:17;93983.84;;;16.76;51.14
40596;BME280;26304;48.794;9.820;2023-01-16T09:29:01;93959.97;;;16.87;50.74
40596;BME280;26304;48.794;9.820;2023-01-16T09:34:44;93954.75;;;17.13;50.63
40596;BME280;26304;48.794;9.820;2023-01-16T09:40:26;93967.28;;;17.34;50.67
40596;BME280;26304;48.794;9.820;2023-01-16T09:46:13;93952.78;;;17.42;50.68
40596;BME280;26304;48.794;9.820;2023-01-16T09:52:00;93971.91;;;17.43;50.51
40596;BME280;26304;48.794;9.820;2023-01-16T09:58:03;93983.44;;;17.58;50.08
40596;BME280;26304;48.794;9.820;2023-01-16T10:04:15;93979.97;;;17.61;49.52
40596;BME280;26304;48.794;9.820;2023-01-16T10:10:04;93983.34;;;17.62;49.79
40596;BME280;26304;48.794;9.820;2023-01-16T10:15:52;93962.44;;;17.58;50.05
40596;BME280;26304;48.794;9.820;2023-01-16T10:21:54;93916.59;;;17.59;50.02
40596;BME280;26304;48.794;9.820;2023-01-16T10:27:44;93889.50;;;17.63;50.22
40596;BME280;26304;48.794;9.820;2023-01-16T10:33:34;93869.56;;;17.52;50.50
40596;BME280;26304;48.794;9.820;2023-01-16T10:39:19;93880.38;;;17.54;51.27
40596;BME280;26304;48.794;9.820;2023-01-16T10:45:13;93876.16;;;17.57;51.05
40596;BME280;26304;48.794;9.820;2023-01-16T10:51:13;93867.84;;;17.71;50.60
40596;BME280;26304;48.794;9.820;2023-01-16T10:56:57;93890.69;;;17.84;50.71
40596;BME280;26304;48.794;9.820;2023-01-16T11:02:46;93843.63;;;17.89;50.41
40596;BME280;26304;48.794;9.820;2023-01-16T11:08:29;93858.53;;;17.92;50.67
40596;BME280;26304;48.794;9.820;2023-01-16T11:14:17;93831.53;;;17.92;50.67
40596;BME280;26304;48.794;9.820;2023-01-16T11:20:20;93824.38;;;17.92;50.38
40596;BME280;26304;48.794;9.820;2023-01-16T11:26:04;93828.56;;;17.90;50.30
40596;BME280;26304;48.794;9.820;2023-01-16T11:31:51;93806.81;;;17.89;50.49
40596;BME280;26304;48.794;9.820;2023-01-16T11:37:36;93799.38;;;17.88;50.32
40596;BME280;26304;48.794;9.820;2023-01-16T11:43:22;93776.84;;;17.87;50.42
40596;BME280;26304;48.794;9.820;2023-01-16T11:49:27;93755.50;;;17.85;50.39
40596;BME280;26304;48.794;9.820;2023-01-16T11:55:14;93747.47;;;17.79;50.58
40596;BME280;26304;48.794;9.820;2023-01-16T12:01:00;93747.03;;;17.81;50.53
40596;BME280;26304;48.794;9.820;2023-01-16T12:06:54;93728.94;;;17.83;50.57
40596;BME280;26304;48.794;9.820;2023-01-16T12:12:42;93698.25;;;17.79;50.62
40596;BME280;26304;48.794;9.820;2023-01-16T12:18:55;93686.91;;;17.83;50.57
40596;BME280;26304;48.794;9.820;2023-01-16T12:24:47;93672.22;;;17.94;50.11
40596;BME280;26304;48.794;9.820;2023-01-16T12:30:41;93654.16;;;18.06;49.78
40596;BME280;26304;48.794;9.820;2023-01-16T12:36:37;93640.16;;;18.09;49.85
40596;BME280;26304;48.794;9.820;2023-01-16T12:42:41;93619.44;;;18.20;49.84
40596;BME280;26304;48.794;9.820;2023-01-16T12:48:58;93601.78;;;18.30;49.74
40596;BME280;26304;48.794;9.820;2023-01-16T12:54:58;93596.53;;;18.30;49.94
40596;BME280;26304;48.794;9.820;2023-01-16T13:00:53;93577.25;;;18.24;49.96
40596;BME280;26304;48.794;9.820;2023-01-16T13:06:41;93558.97;;;18.20;49.97
40596;BME280;26304;48.794;9.820;2023-01-16T13:12:26;93554.56;;;18.17;50.18
40596;BME280;26304;48.794;9.820;2023-01-16T13:18:38;93542.16;;;18.08;50.86
40596;BME280;26304;48.794;9.820;2023-01-16T13:24:26;93534.00;;;18.06;50.73
40596;BME280;26304;48.794;9.820;2023-01-16T13:30:13;93526.50;;;17.95;51.48
40596;BME280;26304;48.794;9.820;2023-01-16T13:36:03;93519.53;;;18.02;51.11
40596;BME280;26304;48.794;9.820;2023-01-16T13:41:50;93508.41;;;18.07;51.11
40596;BME280;26304;48.794;9.820;2023-01-16T13:47:38;93496.91;;;18.23;50.66
40596;BME280;26304;48.794;9.820;2023-01-16T13:53:23;93494.72;;;18.40;50.22
40596;BME280;26304;48.794;9.820;2023-01-16T13:59:35;93473.22;;;18.50;50.11
40596;BME280;26304;48.794;9.820;2023-01-16T14:05:29;93468.53;;;18.55;49.86
40596;BME280;26304;48.794;9.820;2023-01-16T14:11:32;93456.13;;;18.46;50.42
40596;BME280;26304;48.794;9.820;2023-01-16T14:17:15;93453.34;;;18.49;50.07
40596;BME280;26304;48.794;9.820;2023-01-16T14:22:58;93455.13;;;18.43;50.80
40596;BME280;26304;48.794;9.820;2023-01-16T14:29:00;93443.28;;;18.39;50.38
40596;BME280;26304;48.794;9.820;2023-01-16T14:34:48;93438.16;;;18.44;50.46
40596;BME280;26304;48.794;9.820;2023-01-16T14:40:37;93436.56;;;18.38;50.34
40596;BME280;26304;48.794;9.820;2023-01-16T14:46:50;93436.72;;;18.25;50.65
40596;BME280;26304;48.794;9.820;2023-01-16T14:53:20;93418.91;;;18.20;50.93
40596;BME280;26304;48.794;9.820;2023-01-16T14:59:25;93406.91;;;18.19;50.95
40596;BME280;26304;48.794;9.820;2023-01-16T15:05:13;93413.78;;;18.25;51.44
40596;BME280;26304;48.794;9.820;2023-01-16T15:11:01;93410.13;;;18.32;51.50
40596;BME280;26304;48.794;9.820;2023-01-16T15:17:15;93391.28;;;18.33;52.10
40596;BME280;26304;48.794;9.820;2023-01-16T15:23:21;93385.53;;;18.44;51.32
40596;BME280;26304;48.794;9.820;2023-01-16T15:29:32;93382.59;;;18.61;50.50
40596;BME280;26304;48.794;9.820;2023-01-16T15:35:21;93363.28;;;18.73;50.19
40596;BME280;26304;48.794;9.820;2023-01-16T15:41:06;93349.56;;;18.60;51.95
40596;BME280;26304;48.794;9.820;2023-01-16T15:46:57;93346.06;;;18.54;51.39
40596;BME280;26304;48.794;9.820;2023-01-16T15:52:43;93348.25;;;18.55;52.77
40596;BME280;26304;48.794;9.820;2023-01-16T15:58:27;93348.44;;;18.42;52.22
40596;BME280;26304;48.794;9.820;2023-01-16T16:04:09;93338.81;;;18.30;52.11
40596;BME280;26304;48.794;9.820;2023-01-16T16:09:54;93351.41;;;18.26;52.33
40596;BME280;26304;48.794;9.820;2023-01-16T16:15:52;93354.47;;;18.24;52.60
40596;BME280;26304;48.794;9.820;2023-01-16T16:21:53;93339.75;;;18.18;52.40
40596;BME280;26304;48.794;9.820;2023-01-16T16:27:49;93328.91;;;18.15;52.75
40596;BME280;26304;48.794;9.820;2023-01-16T16:33:33;93325.72;;;18.02;52.86
40596;BME280;26304;48.794;9.820;2023-01-16T16:39:28;93315.50;;;17.58;52.63
40596;BME280;26304;48.794;9.820;2023-01-16T16:45:18;93309.66;;;17.35;52.81
40596;BME280;26304;48.794;9.820;2023-01-16T16:51:19;93302.06;;;17.19;53.22
40596;BME280;26304;48.794;9.820;2023-01-16T16:57:02;93289.50;;;17.04;52.96
40596;BME280;26304;48.794;9.820;2023-01-16T17:02:46;93291.69;;;16.97;53.54
40596;BME280;26304;48.794;9.820;2023-01-16T17:08:31;93288.75;;;16.95;53.18
40596;BME280;26304;48.794;9.820;2023-01-16T17:14:13;93280.13;;;16.85;53.84
40596;BME280;26304;48.794;9.820;2023-01-16T17:19:55;93283.28;;;16.80;53.35
40596;BME280;26304;48.794;9.820;2023-01-16T17:25:40;93282.41;;;16.74;53.80
40596;BME280;26304;48.794;9.820;2023-01-16T17:31:23;93290.41;;;16.70;53.86
40596;BME280;26304;48.794;9.820;2023-01-16T17:37:08;93278.03;;;16.70;53.32
40596;BME280;26304;48.794;9.820;2023-01-16T17:42:56;93296.94;;;16.97;52.75
40596;BME280;26304;48.794;9.820;2023-01-16T17:48:56;93295.91;;;17.03;53.01
40596;BME280;26304;48.794;9.820;2023-01-16T17:54:38;93303.91;;;16.91;53.16
40596;BME280;26304;48.794;9.820;2023-01-16T18:00:40;93292.09;;;16.86;53.23
40596;BME280;26304;48.794;9.820;2023-01-16T18:06:23;93296.97;;;16.75;52.89
40596;BME280;26304;48.794;9.820;2023-01-16T18:12:05;93310.38;;;16.77;53.30
40596;BME280;26304;48.794;9.820;2023-01-16T18:18:07;93291.47;;;16.82;53.30
40596;BME280;26304;48.794;9.820;2023-01-16T18:23:49;93310.44;;;16.86;54.08
40596;BME280;26304;48.794;9.820;2023-01-16T18:29:32;93312.94;;;16.89;54.27
40596;BME280;26304;48.794;9.820;2023-01-16T18:35:17;93322.41;;;16.87;54.71
40596;BME280;26304;48.794;9.820;2023-01-16T18:41:00;93309.28;;;16.87;54.58
40596;BME280;26304;48.794;9.820;2023-01-16T18:47:00;93314.53;;;16.87;55.12
40596;BME280;26304;48.794;9.820;2023-01-16T18:53:01;93306.59;;;16.78;54.92
40596;BME280;26304;48.794;9.820;2023-01-16T18:59:02;93316.16;;;16.62;54.65
40596;BME280;26304;48.794;9.820;2023-01-16T19:05:02;93307.47;;;16.75;55.01
40596;BME280;26304;48.794;9.820;2023-01-16T19:10:46;93311.84;;;16.78;54.41
40596;BME280;26304;48.794;9.820;2023-01-16T19:16:28;93302.19;;;16.65;54.95
40596;BME280;26304;48.794;9.820;2023-01-16T19:22:26;93305.56;;;16.66;55.44
40596;BME280;26304;48.794;9.820;2023-01-16T19:28:10;93316.59;;;16.61;55.63
40596;BME280;26304;48.794;9.820;2023-01-16T19:33:52;93313.00;;;16.67;55.20
40596;BME280;26304;48.794;9.820;2023-01-16T19:39:36;93321.59;;;16.68;55.71
40596;BME280;26304;48.794;9.820;2023-01-16T19:45:20;93325.78;;;16.65;55.47
40596;BME280;26304;48.794;9.820;2023-01-16T19:51:20;93318.97;;;16.68;55.21
40596;BME280;26304;48.794;9.820;2023-01-16T19:57:03;93339.19;;;16.58;55.72
40596;BME280;26304;48.794;9.820;2023-01-16T20:02:47;93333.66;;;16.65;55.46
40596;BME280;26304;48.794;9.820;2023-01-16T20:08:29;93353.50;;;16.66;55.43
40596;BME280;26304;48.794;9.820;2023-01-16T20:14:12;93350.91;;;16.76;54.98
40596;BME280;26304;48.794;9.820;2023-01-16T20:19:56;93354.19;;;16.89;55.33
40596;BME280;26304;48.794;9.820;2023-01-16T20:25:38;93370.91;;;16.51;52.00
40596;BME280;26304;48.794;9.820;2023-01-16T20:31:21;93366.41;;;15.85;47.79
40596;BME280;26304;48.794;9.820;2023-01-16T20:37:07;93361.97;;;16.17;48.40
40596;BME280;26304;48.794;9.820;2023-01-16T20:42:49;93393.53;;;16.13;49.76
40596;BME280;26304;48.794;9.820;2023-01-16T20:48:49;93397.63;;;16.14;49.69
40596;BME280;26304;48.794;9.820;2023-01-16T20:54:33;93391.41;;;15.99;50.59
40596;BME280;26304;48.794;9.820;2023-01-16T21:00:16;93387.75;;;15.96;51.18
40596;BME280;26304;48.794;9.820;2023-01-16T21:05:59;93403.16;;;15.94;51.01
40596;BME280;26304;48.794;9.820;2023-01-16T21:11:43;93405.91;;;15.91;51.26
40596;BME280;26304;48.794;9.820;2023-01-16T21:17:44;93413.84;;;15.87;51.86
40596;BME280;26304;48.794;9.820;2023-01-16T21:23:44;93410.94;;;15.85;51.96
40596;BME280;26304;48.794;9.820;2023-01-16T21:29:28;93408.03;;;15.83;51.48
40596;BME280;26304;48.794;9.820;2023-01-16T21:35:11;93420.78;;;15.81;51.54
40596;BME280;26304;48.794;9.820;2023-01-16T21:40:54;93424.56;;;15.80;52.25
40596;BME280;26304;48.794;9.820;2023-01-16T21:46:37;93422.47;;;15.75;51.86
40596;BME280;26304;48.794;9.820;2023-01-16T21:52:20;93426.97;;;15.74;52.24
40596;BME280;26304;48.794;9.820;2023-01-16T21:58:03;93433.78;;;15.72;52.31
40596;BME280;26304;48.794;9.820;2023-01-16T22:03:47;93432.31;;;15.71;51.85
40596;BME280;26304;48.794;9.820;2023-01-16T22:09:29;93438.09;;;15.66;52.14
40596;BME280;26304;48.794;9.820;2023-01-16T22:15:12;93446.69;;;15.66;52.04
40596;BME280;26304;48.794;9.820;2023-01-16T22:21:13;93441.97;;;15.61;52.16
40596;BME280;26304;48.794;9.820;2023-01-16T22:26:56;93447.22;;;15.61;52.18
40596;BME280;26304;48.794;9.820;2023-01-16T22:32:39;93445.97;;;15.66;52.10
40596;BME280;26304;48.794;9.820;2023-01-16T22:38:22;93444.06;;;15.66;52.63
40596;BME280;26304;48.794;9.820;2023-01-16T22:44:05;93446.78;;;15.62;52.91
40596;BME280;26304;48.794;9.820;2023-01-16T22:50:06;93447.63;;;15.59;52.73
40596;BME280;26304;48.794;9.820;2023-01-16T22:55:58;93448.34;;;15.60;52.66
40596;BME280;26304;48.794;9.820;2023-01-16T23:01:40;93449.94;;;15.57;52.90
40596;BME280;26304;48.794;9.820;2023-01-16T23:07:25;93447.63;;;15.59;53.02
40596;BME280;26304;48.794;9.820;2023-01-16T23:13:10;93454.84;;;15.55;52.43
40596;BME280;26304;48.794;9.820;2023-01-16T23:18:53;93465.66;;;15.57;52.90
40596;BME280;26304;48.794;9.820;2023-01-16T23:24:35;93471.75;;;15.54;52.87
40596;BME280;26304;48.794;9.820;2023-01-16T23:30:19;93467.63;;;15.53;52.59
40596;BME280;26304;48.794;9.820;2023-01-16T23:36:10;93485.66;;;15.51;52.69
40596;BME280;26304;48.794;9.820;2023-01-16T23:41:53;93485.88;;;15.44;53.13
40596;BME280;26304;48.794;9.820;2023-01-16T23:47:55;93487.66;;;15.47;52.99
40596;BME280;26304;48.794;9.820;2023-01-16T23:53:37;93491.09;;;15.44;52.46
40596;BME280;26304;48.794;9.820;2023-01-16T23:59:19;93509.53;;;15.40;52.89
